Time;durP1;ratioP1;P1;durP2;ratioP2;P2;SDS_P1;SDS_P2;PMS_P1;PMS_P2;Temp;Humidity;BMP_temperature;BMP_pressure;BME280_temperature;BME280_humidity;BME280_pressure;Samples;Min_cycle;Max_cycle;Signal;HPM_P1;HPM_P2
2021/03/25 00:01:38;;;;;;;32.40;16.63;;;;;;;-4.39;100.00;94875.13;10458191;28;20025;-79
2021/03/25 00:06:42;;;;;;;33.45;13.27;;;;;;;-4.45;100.00;94878.47;10456477;28;20091;-79
2021/03/25 00:11:43;;;;;;;35.13;18.73;;;;;;;-4.63;100.00;94866.47;10457194;28;20049;-79
2021/03/25 00:16:44;;;;;;;34.22;18.02;;;;;;;-4.52;100.00;94872.28;10456384;28;20021;-79
2021/03/25 00:21:44;;;;;;;29.30;19.02;;;;;;;-4.57;100.00;94864.94;10458605;28;20740;-80
2021/03/25 00:26:45;;;;;;;35.97;18.15;;;;;;;-4.63;100.00;94873.53;10497525;28;20108;-79
2021/03/25 00:31:46;;;;;;;42.70;18.35;;;;;;;-4.58;100.00;94875.63;10497181;28;20039;-79
2021/03/25 00:36:46;;;;;;;33.88;17.30;;;;;;;-4.63;100.00;94863.84;10496933;28;20032;-79
2021/03/25 00:41:47;;;;;;;29.42;15.85;;;;;;;-4.81;100.00;94874.63;10497389;28;20028;-80
2021/03/25 00:46:48;;;;;;;33.13;16.02;;;;;;;-4.85;100.00;94875.16;10498533;28;20025;-81
2021/03/25 00:51:49;;;;;;;34.28;16.33;;;;;;;-4.72;100.00;94877.19;10498750;28;20017;-81
2021/03/25 00:56:49;;;;;;;39.63;17.95;;;;;;;-4.71;100.00;94870.97;10499121;28;20038;-81
2021/03/25 01:01:50;;;;;;;35.87;18.67;;;;;;;-4.69;100.00;94864.56;10498294;28;20031;-81
2021/03/25 01:06:50;;;;;;;37.63;19.07;;;;;;;-4.68;100.00;94853.06;10498465;28;20079;-81
2021/03/25 01:11:51;;;;;;;30.97;14.07;;;;;;;-4.76;100.00;94862.81;10498477;28;20510;-81
2021/03/25 01:16:53;;;;;;;27.98;12.65;;;;;;;-4.83;100.00;94858.28;10497777;28;20285;-81
2021/03/25 01:21:55;;;;;;;19.17;9.60;;;;;;;-4.86;100.00;94869.06;10486421;28;20029;-81
2021/03/25 01:26:55;;;;;;;23.20;9.00;;;;;;;-5.00;100.00;94857.53;10444678;28;20033;-81
2021/03/25 01:31:56;;;;;;;13.45;9.73;;;;;;;-5.22;100.00;94860.94;10454726;28;20025;-80
2021/03/25 01:36:56;;;;;;;14.27;8.60;;;;;;;-5.29;100.00;94866.06;10452407;28;20420;-80
2021/03/25 01:41:57;;;;;;;12.07;8.35;;;;;;;-5.41;100.00;94860.41;10455053;28;20295;-81
2021/03/25 01:46:57;;;;;;;24.65;10.85;;;;;;;-5.37;100.00;94861.69;10467459;28;20021;-81
2021/03/25 01:52:22;;;;;;;17.23;9.23;;;;;;;-5.25;100.00;94862.09;10455528;28;20498;-81
2021/03/25 01:57:31;;;;;;;17.83;8.07;;;;;;;-5.21;100.00;94859.97;10445100;28;20029;-81
2021/03/25 02:02:56;;;;;;;13.60;8.82;;;;;;;-5.11;100.00;94865.00;10451785;28;20029;-81
2021/03/25 02:08:34;;;;;;;15.25;6.88;;;;;;;-5.11;100.00;94868.41;10451589;28;20053;-81
2021/03/25 02:13:45;;;;;;;19.92;8.82;;;;;;;-5.18;100.00;94872.72;10452172;28;20039;-82
2021/03/25 02:18:54;;;;;;;16.40;9.70;;;;;;;-5.40;100.00;94885.59;10452908;28;20059;-81
2021/03/25 02:24:28;;;;;;;18.92;10.02;;;;;;;-5.52;100.00;94887.78;10472899;28;20111;-80
2021/03/25 02:29:56;;;;;;;17.83;9.63;;;;;;;-5.47;100.00;94891.69;10492834;28;20032;-81
2021/03/25 02:35:06;;;;;;;23.90;11.63;;;;;;;-5.50;100.00;94884.97;10493170;28;20127;-81
2021/03/25 02:40:14;;;;;;;24.10;13.65;;;;;;;-5.46;100.00;94888.88;10489755;28;20044;-80
2021/03/25 02:45:21;;;;;;;21.33;11.18;;;;;;;-5.29;100.00;94892.25;10500337;28;20024;-80
2021/03/25 02:50:55;;;;;;;24.40;11.48;;;;;;;-5.20;100.00;94900.91;10491984;28;20508;-81
2021/03/25 02:56:00;;;;;;;28.52;12.65;;;;;;;-5.20;100.00;94891.22;10485285;28;20037;-80
2021/03/25 03:01:04;;;;;;;23.20;14.10;;;;;;;-4.87;100.00;94904.16;10444659;28;20060;-81
2021/03/25 03:06:11;;;;;;;23.08;13.15;;;;;;;-4.52;100.00;94909.00;10448279;28;20511;-81
2021/03/25 03:11:21;;;;;;;15.70;10.18;;;;;;;-4.33;100.00;94913.78;10450409;28;20029;-81
2021/03/25 03:16:29;;;;;;;19.90;10.73;;;;;;;-4.18;100.00;94915.63;10447721;28;20056;-81
2021/03/25 03:21:50;;;;;;;19.50;10.90;;;;;;;-4.21;100.00;94926.50;10451609;28;20056;-81
2021/03/25 03:26:57;;;;;;;17.73;11.23;;;;;;;-4.14;100.00;94927.41;10495781;28;20033;-81
2021/03/25 03:32:13;;;;;;;20.85;9.38;;;;;;;-4.12;100.00;94939.38;10502397;28;20112;-81
2021/03/25 03:37:25;;;;;;;18.98;9.70;;;;;;;-4.29;100.00;94935.22;10500932;28;20021;-80
2021/03/25 03:42:27;;;;;;;18.85;9.77;;;;;;;-4.17;100.00;94946.13;10500832;28;20099;-80
2021/03/25 03:47:30;;;;;;;19.08;10.07;;;;;;;-4.01;100.00;94940.75;10498848;28;20119;-79
2021/03/25 03:52:36;;;;;;;20.90;10.15;;;;;;;-3.87;100.00;94949.63;10497064;28;20033;-80
2021/03/25 03:57:57;;;;;;;24.65;11.25;;;;;;;-3.92;100.00;94952.00;10498900;28;20031;-84
2021/03/25 04:03:42;;;;;;;17.55;9.00;;;;;;;-4.00;100.00;94955.50;10486731;28;20105;-81
2021/03/25 04:08:48;;;;;;;17.80;9.50;;;;;;;-4.25;100.00;94967.19;10455294;28;20102;-82
2021/03/25 04:14:07;;;;;;;20.23;9.85;;;;;;;-4.26;100.00;94965.56;10499830;28;20095;-81
2021/03/25 04:19:26;;;;;;;16.58;8.32;;;;;;;-4.19;100.00;94971.72;10498285;28;20123;-82
2021/03/25 04:24:31;;;;;;;15.10;9.05;;;;;;;-4.10;100.00;94964.59;10499706;28;20024;-83
2021/03/25 04:29:37;;;;;;;19.58;9.77;;;;;;;-4.09;100.00;94971.50;10499701;28;20080;-83
2021/03/25 04:34:37;;;;;;;22.92;11.73;;;;;;;-4.06;100.00;94977.22;10498748;28;20069;-83
2021/03/25 04:39:39;;;;;;;22.95;10.35;;;;;;;-4.07;100.00;94983.44;10498154;28;20149;-83
2021/03/25 04:44:45;;;;;;;15.50;8.55;;;;;;;-4.21;100.00;94987.66;10498567;28;20445;-82
2021/03/25 04:49:52;;;;;;;23.70;8.73;;;;;;;-4.31;100.00;95001.00;10498731;28;20028;-84
2021/03/25 04:54:53;;;;;;;14.25;8.18;;;;;;;-4.17;100.00;95009.09;10498272;28;20111;-81
2021/03/25 05:00:06;;;;;;;26.15;7.38;;;;;;;-4.16;100.00;95014.19;10498349;28;20103;-81
2021/03/25 05:05:12;;;;;;;19.65;8.35;;;;;;;-4.06;100.00;95021.00;10497436;28;20554;-81
2021/03/25 05:10:22;;;;;;;19.17;7.60;;;;;;;-4.11;100.00;95024.16;10496086;28;20031;-80
2021/03/25 05:15:23;;;;;;;15.43;8.55;;;;;;;-4.30;100.00;95034.13;10455893;28;20021;-83
2021/03/25 05:20:31;;;;;;;17.85;8.05;;;;;;;-4.28;100.00;95041.84;10454967;28;20028;-83
2021/03/25 05:26:09;;;;;;;16.75;7.80;;;;;;;-4.01;100.00;95034.44;10455552;28;20450;-82
2021/03/25 05:31:13;;;;;;;18.47;7.17;;;;;;;-3.84;100.00;95030.69;10474047;28;20483;-81
2021/03/25 05:36:15;;;;;;;15.18;9.05;;;;;;;-3.20;100.00;95018.94;10496327;28;20028;-80
2021/03/25 05:41:39;;;;;;;14.70;8.20;;;;;;;-2.12;100.00;95019.25;10490826;28;20077;-79
2021/03/25 05:46:45;;;;;;;12.68;7.88;;;;;;;-0.92;100.00;95023.84;10482535;28;20033;-77
2021/03/25 05:52:04;;;;;;;29.95;11.70;;;;;;;0.14;94.83;95020.78;10445656;28;20040;-78
2021/03/25 05:57:15;;;;;;;34.65;13.45;;;;;;;1.00;87.09;95021.81;10446187;28;20028;-78
2021/03/25 06:02:21;;;;;;;25.05;12.43;;;;;;;1.76;80.00;95024.84;10444191;28;20060;-79
2021/03/25 06:07:24;;;;;;;33.95;12.38;;;;;;;2.46;73.77;95018.75;10444987;28;20102;-78
2021/03/25 06:12:27;;;;;;;26.08;14.20;;;;;;;2.99;67.96;95035.28;10445000;28;20368;-78
2021/03/25 06:17:49;;;;;;;30.50;12.45;;;;;;;3.34;62.81;95032.09;10445632;28;20033;-77
2021/03/25 06:23:00;;;;;;;21.38;8.38;;;;;;;3.45;56.13;95041.97;10444481;28;20032;-77
2021/03/25 06:28:25;;;;;;;23.27;8.82;;;;;;;2.70;57.27;95054.28;10444954;28;20337;-77
2021/03/25 06:33:45;;;;;;;28.85;10.45;;;;;;;1.82;61.71;95063.75;10444633;28;20025;-78
2021/03/25 06:38:55;;;;;;;23.30;12.38;;;;;;;1.48;66.02;95063.06;10443384;28;20032;-78
2021/03/25 06:44:02;;;;;;;22.80;9.77;;;;;;;3.30;61.44;95058.25;10442519;28;20062;-78
2021/03/25 06:49:20;;;;;;;21.38;10.95;;;;;;;4.46;55.05;95052.19;10441096;28;20514;-78
2021/03/25 06:54:24;;;;;;;30.77;11.95;;;;;;;5.40;52.83;95043.53;10451438;28;20033;-79
2021/03/25 06:59:33;;;;;;;35.67;12.63;;;;;;;6.03;50.46;95041.13;10483257;28;20071;-79
2021/03/25 07:04:41;;;;;;;30.92;13.65;;;;;;;6.56;49.96;95041.00;10483333;28;20040;-79
2021/03/25 07:09:41;;;;;;;30.73;14.40;;;;;;;7.66;47.58;95036.06;10482416;28;20068;-79
2021/03/25 07:14:43;;;;;;;28.77;12.95;;;;;;;9.18;41.82;95035.50;10479082;28;20118;-79
2021/03/25 07:19:49;;;;;;;34.58;14.30;;;;;;;10.15;41.05;95021.84;10481131;28;20031;-79
2021/03/25 07:24:52;;;;;;;33.55;13.35;;;;;;;10.67;39.60;95019.31;10482630;28;20039;-79
2021/03/25 07:30:09;;;;;;;37.50;13.52;;;;;;;11.01;38.24;95026.88;10458475;28;20033;-79
2021/03/25 07:35:34;;;;;;;33.63;14.02;;;;;;;11.82;36.59;95017.09;10442861;28;20158;-79
2021/03/25 07:40:38;;;;;;;24.25;13.98;;;;;;;12.80;35.15;95025.56;10441897;28;20049;-80
2021/03/25 07:45:39;;;;;;;20.63;8.93;;;;;;;13.89;34.59;95019.28;10444104;28;20025;-78
2021/03/25 07:50:40;;;;;;;15.43;7.30;;;;;;;14.08;32.42;95008.50;10474592;28;20029;-79
2021/03/25 07:55:40;;;;;;;13.82;6.22;;;;;;;14.76;32.31;95010.09;10460442;28;20116;-79
2021/03/25 08:00:41;;;;;;;14.83;5.63;;;;;;;14.34;29.78;95007.13;10462666;28;20025;-80
2021/03/25 08:05:43;;;;;;;16.13;6.40;;;;;;;13.75;31.25;95009.16;10483847;28;20690;-80
2021/03/25 08:10:45;;;;;;;7.78;4.95;;;;;;;14.74;30.27;94998.75;10484180;28;20029;-79
2021/03/25 08:15:49;;;;;;;16.08;6.70;;;;;;;11.35;32.55;95013.69;10469492;28;20091;-79
2021/03/25 08:20:49;;;;;;;14.00;6.93;;;;;;;11.04;34.17;95011.03;10469587;28;20035;-79
2021/03/25 08:26:19;;;;;;;11.15;5.68;;;;;;;10.58;34.08;95010.97;10459887;28;20036;-78
2021/03/25 08:32:03;;;;;;;12.18;6.60;;;;;;;9.12;36.86;95009.75;10495324;28;20031;-80
2021/03/25 08:37:13;;;;;;;9.85;6.10;;;;;;;6.78;45.00;95011.75;10455554;28;20117;-79
2021/03/25 08:42:28;;;;;;;12.23;6.65;;;;;;;7.92;41.97;95000.78;10495732;28;20712;-79
2021/03/25 08:47:39;;;;;;;11.20;5.53;;;;;;;8.63;42.90;94995.38;10495973;28;20037;-79
2021/03/25 08:52:43;;;;;;;11.23;5.10;;;;;;;9.12;39.53;94991.75;10498243;28;20020;-80
2021/03/25 08:57:48;;;;;;;15.48;4.18;;;;;;;9.07;40.06;94981.81;10497457;28;20028;-79
2021/03/25 09:03:17;;;;;;;7.22;4.20;;;;;;;8.21;40.44;94996.03;10471469;28;20122;-79
2021/03/25 09:08:21;;;;;;;9.50;4.45;;;;;;;8.43;38.46;95000.53;10458845;28;20056;-80
2021/03/25 09:13:27;;;;;;;8.13;3.90;;;;;;;9.30;38.64;94987.88;10495799;28;20028;-80
2021/03/25 09:18:29;;;;;;;6.70;3.67;;;;;;;10.39;33.33;94983.78;10466189;28;20024;-81
2021/03/25 09:23:34;;;;;;;6.80;4.15;;;;;;;10.54;36.35;94986.50;10485043;28;20021;-79
2021/03/25 09:28:52;;;;;;;6.72;4.05;;;;;;;9.88;37.23;94998.66;10486582;28;20065;-77
2021/03/25 09:33:55;;;;;;;;;;;;;;;9.20;36.05;94998.53;10487946;28;20032;-79
2021/03/25 09:38:58;;;;;;;6.57;4.15;;;;;;;8.36;39.56;95011.47;10488771;28;19922;-78
2021/03/25 09:44:11;;;;;;;10.30;4.70;;;;;;;9.10;37.20;95007.31;10485293;28;20040;-78
2021/03/25 09:49:36;;;;;;;5.05;3.63;;;;;;;10.83;34.21;94994.06;10488560;28;20338;-78
2021/03/25 09:54:48;;;;;;;11.63;4.90;;;;;;;11.27;33.58;94990.03;10488461;28;20029;-78
2021/03/25 10:00:04;;;;;;;9.23;4.43;;;;;;;11.21;35.84;94991.91;10486321;28;20115;-79
2021/03/25 10:05:34;;;;;;;5.43;3.55;;;;;;;12.55;31.29;94993.38;10486574;28;20041;-78
2021/03/25 10:10:37;;;;;;;8.07;3.55;;;;;;;12.36;32.62;94991.31;10491604;28;20036;-80
2021/03/25 10:16:12;;;;;;;5.50;3.55;;;;;;;11.66;33.02;94999.38;10486207;28;20384;-78
2021/03/25 10:21:19;;;;;;;9.48;4.10;;;;;;;12.21;32.73;94992.22;10486078;28;20039;-80
2021/03/25 10:26:36;;;;;;;10.20;4.38;;;;;;;11.05;35.72;94988.44;10485546;28;20020;-78
2021/03/25 10:31:40;;;;;;;8.77;4.93;;;;;;;10.62;36.59;94990.56;10485525;28;20692;-79
2021/03/25 10:36:51;;;;;;;8.05;4.20;;;;;;;10.36;34.85;94995.88;10483229;28;20035;-78
2021/03/25 10:41:53;;;;;;;9.00;4.05;;;;;;;9.61;36.93;94995.28;10489359;28;20464;-78
2021/03/25 10:46:55;;;;;;;9.20;5.20;;;;;;;9.46;38.30;94993.31;10486941;28;20025;-77
2021/03/25 10:51:56;;;;;;;6.53;4.07;;;;;;;9.46;36.92;94985.28;10486345;28;20028;-78
2021/03/25 10:57:06;;;;;;;9.10;4.97;;;;;;;7.77;38.48;94999.56;10486267;28;20028;-77
2021/03/25 11:02:19;;;;;;;7.45;4.70;;;;;;;7.31;40.96;95013.13;10447578;28;20025;-78
2021/03/25 11:07:22;;;;;;;9.20;4.25;;;;;;;6.54;42.73;95000.41;10444411;28;20479;-77
2021/03/25 11:12:28;;;;;;;11.52;4.95;;;;;;;6.70;38.94;95001.47;10444440;28;20056;-78
2021/03/25 11:17:33;;;;;;;9.90;4.63;;;;;;;7.56;42.24;95006.47;10482856;28;20450;-78
2021/03/25 11:22:34;;;;;;;8.38;4.90;;;;;;;8.97;38.52;94994.34;10487312;28;20031;-78
2021/03/25 11:27:35;;;;;;;6.97;4.50;;;;;;;9.66;36.58;94988.06;10483949;28;20035;-78
2021/03/25 11:32:39;;;;;;;7.13;3.80;;;;;;;10.61;35.29;94983.56;10456180;28;20021;-79
2021/03/25 11:37:39;;;;;;;6.55;3.97;;;;;;;8.74;34.77;94990.16;10439855;28;20027;-78
2021/03/25 11:42:45;;;;;;;6.30;3.90;;;;;;;7.21;39.70;94999.59;10482209;28;20054;-78
2021/03/25 11:47:46;;;;;;;6.60;4.35;;;;;;;7.27;38.85;94989.78;10486961;28;20086;-80
2021/03/25 11:52:51;;;;;;;10.10;4.97;;;;;;;6.32;40.31;94996.56;10473705;28;20021;-78
2021/03/25 11:57:55;;;;;;;8.98;4.43;;;;;;;6.37;41.80;94997.72;10473824;28;20491;-78
2021/03/25 12:02:56;;;;;;;17.63;5.43;;;;;;;7.07;39.15;94999.09;10478190;28;20399;-79
2021/03/25 12:08:12;;;;;;;5.97;4.03;;;;;;;7.60;38.13;94996.91;10450499;28;20060;-79
2021/03/25 12:13:13;;;;;;;5.35;3.72;;;;;;;7.81;37.60;94989.16;10446199;28;20037;-78
2021/03/25 12:18:22;;;;;;;10.57;3.75;;;;;;;7.58;36.53;94996.34;10449186;28;20468;-78
2021/03/25 12:23:29;;;;;;;7.32;5.03;;;;;;;7.93;40.46;94989.81;10473652;28;20028;-78
2021/03/25 12:28:29;;;;;;;6.25;3.80;;;;;;;8.27;35.16;94981.63;10491926;28;20025;-80
2021/03/25 12:33:33;;;;;;;5.70;3.63;;;;;;;8.28;35.83;94977.09;10494785;28;20044;-80
2021/03/25 12:38:35;;;;;;;7.13;4.47;;;;;;;7.28;36.83;94976.16;10495811;28;20483;-79
2021/03/25 12:43:35;;;;;;;6.25;4.10;;;;;;;5.97;40.40;94978.00;10483057;28;20025;-79
2021/03/25 12:48:37;;;;;;;7.00;4.25;;;;;;;6.88;40.09;94971.84;10453175;28;20085;-78
2021/03/25 12:53:37;;;;;;;8.18;4.80;;;;;;;7.03;41.44;94968.59;10487497;28;20028;-78
2021/03/25 12:58:38;;;;;;;8.00;3.93;;;;;;;7.03;39.12;94967.78;10488274;28;20055;-78
2021/03/25 13:03:41;;;;;;;6.55;4.00;;;;;;;6.99;41.67;94970.94;10469504;28;20032;-77
2021/03/25 13:08:42;;;;;;;8.82;4.97;;;;;;;7.29;40.93;94968.97;10467674;28;20039;-78
2021/03/25 13:13:43;;;;;;;8.02;4.35;;;;;;;7.39;38.66;94973.63;10450185;28;20032;-78
2021/03/25 13:18:44;;;;;;;7.55;4.50;;;;;;;7.50;37.06;94972.72;10472851;28;20072;-79
2021/03/25 13:23:45;;;;;;;7.15;4.05;;;;;;;7.23;38.03;94973.44;10494569;28;20203;-79
2021/03/25 13:28:46;;;;;;;6.63;4.40;;;;;;;6.98;41.55;94960.50;10493180;28;20036;-78
2021/03/25 13:33:46;;;;;;;9.50;4.57;;;;;;;6.71;39.15;94965.69;10487507;28;20036;-77
2021/03/25 13:38:47;;;;;;;6.63;4.50;;;;;;;5.62;38.48;94971.75;10486657;28;20033;-77
2021/03/25 13:43:47;;;;;;;7.87;4.60;;;;;;;6.30;40.88;94971.16;10486426;28;20270;-77
2021/03/25 13:48:47;;;;;;;7.67;4.60;;;;;;;6.16;38.23;94970.66;10484289;28;20271;-76
2021/03/25 13:53:48;;;;;;;8.20;4.63;;;;;;;5.20;41.36;94984.44;10485558;28;20094;-77
2021/03/25 13:58:49;;;;;;;9.50;4.78;;;;;;;5.05;40.11;94980.41;10484854;28;20024;-77
2021/03/25 14:03:49;;;;;;;6.40;4.13;;;;;;;4.71;42.39;94982.78;10484974;28;20070;-77
2021/03/25 14:08:50;;;;;;;10.87;4.67;;;;;;;4.73;41.55;94987.88;10455539;28;20043;-77
2021/03/25 14:13:51;;;;;;;9.23;4.20;;;;;;;4.59;40.45;94977.47;10444333;28;20059;-77
2021/03/25 14:18:52;;;;;;;6.45;4.03;;;;;;;4.64;40.91;94979.44;10445389;28;20055;-77
2021/03/25 14:23:52;;;;;;;11.20;4.88;;;;;;;4.81;40.75;94970.78;10444354;28;20078;-77
2021/03/25 14:28:54;;;;;;;10.68;4.65;;;;;;;4.71;42.24;94976.66;10444514;28;20029;-77
2021/03/25 14:33:57;;;;;;;7.15;3.88;;;;;;;4.67;40.79;94980.84;10456850;28;20055;-77
2021/03/25 14:38:57;;;;;;;6.50;4.53;;;;;;;4.47;41.36;94981.97;10484424;28;20024;-77
2021/03/25 14:43:58;;;;;;;8.80;4.73;;;;;;;4.43;41.27;94986.13;10449603;28;20025;-77
2021/03/25 14:48:58;;;;;;;6.63;4.13;;;;;;;4.43;41.85;94988.78;10442645;28;20020;-76
2021/03/25 14:53:59;;;;;;;6.45;4.43;;;;;;;4.42;40.96;94989.81;10442063;28;20013;-76
2021/03/25 14:58:59;;;;;;;11.68;4.95;;;;;;;4.42;40.80;94990.63;10442886;28;20028;-76
2021/03/25 15:03:59;;;;;;;9.37;5.43;;;;;;;4.54;42.83;94992.50;10441594;28;20052;-76
2021/03/25 15:09:02;;;;;;;15.77;5.23;;;;;;;4.34;45.22;94998.94;10442108;28;20580;-76
2021/03/25 15:14:05;;;;;;;10.60;4.88;;;;;;;4.35;44.65;95000.53;10441601;28;20390;-76
2021/03/25 15:19:06;;;;;;;10.07;5.43;;;;;;;4.15;45.98;95000.03;10442559;28;20033;-76
2021/03/25 15:24:06;;;;;;;9.10;4.75;;;;;;;3.98;47.89;95005.16;10445335;28;20411;-77
2021/03/25 15:29:09;;;;;;;8.82;5.40;;;;;;;3.87;46.76;94999.56;10449800;28;20033;-76
2021/03/25 15:34:12;;;;;;;9.85;5.78;;;;;;;4.08;47.06;95006.25;10485514;28;20028;-77
2021/03/25 15:39:12;;;;;;;8.55;5.75;;;;;;;3.84;49.79;95008.00;10475747;28;20044;-77
2021/03/25 15:44:25;;;;;;;10.52;6.53;;;;;;;3.48;53.46;95012.31;10450180;28;20024;-77
2021/03/25 15:49:26;;;;;;;12.55;6.40;;;;;;;3.41;58.14;95020.34;10449699;28;20487;-77
2021/03/25 15:54:26;;;;;;;15.77;6.30;;;;;;;3.75;60.67;95015.47;10460892;28;20653;-76
2021/03/25 15:59:29;;;;;;;16.23;6.93;;;;;;;3.84;59.46;95023.16;10489069;28;20031;-76
2021/03/25 16:04:29;;;;;;;14.40;7.35;;;;;;;3.33;62.70;95033.13;10488741;28;20053;-76
2021/03/25 16:09:30;;;;;;;12.63;7.50;;;;;;;2.82;72.29;95040.31;10489715;28;20028;-77
2021/03/25 16:14:30;;;;;;;13.18;6.45;;;;;;;2.60;80.18;95046.00;10477663;28;20028;-76
2021/03/25 16:19:31;;;;;;;14.90;6.30;;;;;;;2.36;86.22;95055.56;10488042;28;20041;-77
2021/03/25 16:24:32;;;;;;;13.20;7.27;;;;;;;2.22;89.19;95055.63;10488279;28;20043;-76
2021/03/25 16:29:32;;;;;;;15.52;7.20;;;;;;;2.30;89.63;95048.44;10487700;28;20383;-76
2021/03/25 16:34:34;;;;;;;11.77;6.95;;;;;;;2.47;88.49;95044.25;10487520;28;20099;-77
2021/03/25 16:39:34;;;;;;;14.40;7.88;;;;;;;2.45;84.71;95035.69;10491333;28;20024;-76
2021/03/25 16:44:34;;;;;;;19.45;8.40;;;;;;;2.67;84.26;95035.34;10480610;28;20503;-75
2021/03/25 16:49:35;;;;;;;16.63;9.87;;;;;;;2.73;81.27;95031.81;10487049;28;20032;-75
2021/03/25 16:54:35;;;;;;;18.03;8.77;;;;;;;2.62;80.47;95035.97;10489659;28;20036;-75
2021/03/25 16:59:35;;;;;;;16.08;8.35;;;;;;;2.66;79.23;95037.16;10486710;28;20293;-75
2021/03/25 17:04:36;;;;;;;14.93;9.27;;;;;;;2.50;80.74;95048.31;10479153;28;20051;-75
2021/03/25 17:09:36;;;;;;;15.33;8.13;;;;;;;2.43;79.00;95043.06;10478506;28;20093;-73
2021/03/25 17:14:37;;;;;;;13.30;8.00;;;;;;;2.54;78.88;95049.50;10486161;28;20029;-73
2021/03/25 17:19:38;;;;;;;15.93;9.38;;;;;;;2.43;76.92;95053.66;10486633;28;20082;-73
2021/03/25 17:24:38;;;;;;;17.92;10.20;;;;;;;2.47;77.02;95054.03;10456302;28;20025;-73
2021/03/25 17:29:38;;;;;;;20.27;10.27;;;;;;;2.44;76.30;95060.56;10460033;28;20403;-73
2021/03/25 17:34:39;;;;;;;16.70;9.00;;;;;;;2.50;74.96;95062.38;10463538;28;20445;-73
2021/03/25 17:39:39;;;;;;;19.88;10.90;;;;;;;2.59;73.92;95065.59;10462309;28;20483;-73
2021/03/25 17:44:40;;;;;;;18.15;9.82;;;;;;;2.68;73.82;95066.97;10462748;28;20028;-73
2021/03/25 17:49:41;;;;;;;24.25;9.95;;;;;;;2.62;73.35;95059.84;10460848;28;20482;-73
2021/03/25 17:54:41;;;;;;;24.30;9.73;;;;;;;2.60;74.84;95067.22;10460658;28;20036;-73
2021/03/25 17:59:42;;;;;;;21.60;11.43;;;;;;;2.62;73.90;95067.81;10459673;28;20275;-73
2021/03/25 18:04:42;;;;;;;23.63;13.07;;;;;;;2.52;76.38;95078.09;10470040;28;20303;-73
2021/03/25 18:09:42;;;;;;;31.40;13.27;;;;;;;2.50;79.57;95077.50;10465632;28;20037;-73
2021/03/25 18:14:44;;;;;;;30.83;14.77;;;;;;;2.46;83.23;95084.25;10454322;28;21144;-73
2021/03/25 18:19:46;;;;;;;35.47;14.23;;;;;;;2.49;79.72;95095.25;10459874;28;20043;-74
2021/03/25 18:24:46;;;;;;;30.92;13.35;;;;;;;2.37;80.38;95088.97;10460361;28;20025;-73
2021/03/25 18:29:47;;;;;;;31.40;13.37;;;;;;;2.32;85.08;95094.94;10451062;28;20033;-73
2021/03/25 18:34:47;;;;;;;23.52;11.48;;;;;;;2.27;82.87;95100.06;10456443;28;20360;-73
2021/03/25 18:39:48;;;;;;;23.23;11.27;;;;;;;2.10;82.89;95105.03;10453261;28;20827;-73
2021/03/25 18:44:48;;;;;;;29.67;11.63;;;;;;;2.03;82.70;95101.59;10440720;28;20547;-73
2021/03/25 18:49:48;;;;;;;29.37;12.87;;;;;;;1.87;84.19;95108.16;10451068;28;20177;-73
2021/03/25 18:54:50;;;;;;;23.92;12.35;;;;;;;1.92;84.79;95120.81;10447140;28;20033;-72
2021/03/25 18:59:50;;;;;;;20.20;11.45;;;;;;;1.88;85.32;95112.44;10437533;28;20025;-72
2021/03/25 19:04:51;;;;;;;22.65;9.80;;;;;;;1.90;85.83;95117.53;10466977;28;20415;-72
2021/03/25 19:09:51;;;;;;;20.58;11.20;;;;;;;1.97;86.53;95119.16;10441658;28;20064;-72
2021/03/25 19:14:51;;;;;;;23.63;12.47;;;;;;;1.86;85.91;95117.16;10453723;28;20490;-72
2021/03/25 19:19:55;;;;;;;25.43;11.93;;;;;;;1.87;88.81;95124.06;10483275;28;20354;-73
2021/03/25 19:24:55;;;;;;;34.72;13.77;;;;;;;1.77;92.55;95121.84;10468073;28;20024;-72
2021/03/25 19:29:55;;;;;;;34.33;16.00;;;;;;;1.74;100.00;95122.28;10441183;28;20029;-72
2021/03/25 19:34:56;;;;;;;32.97;14.97;;;;;;;1.72;100.00;95129.63;10440953;28;20320;-73
2021/03/25 19:39:56;;;;;;;27.63;15.57;;;;;;;1.68;100.00;95125.78;10462402;28;20028;-72
2021/03/25 19:44:57;;;;;;;33.05;15.70;;;;;;;1.79;100.00;95122.47;10482322;28;20027;-72
2021/03/25 19:49:58;;;;;;;31.85;15.10;;;;;;;1.88;100.00;95129.19;10475422;28;20375;-72
2021/03/25 19:54:59;;;;;;;30.20;14.07;;;;;;;1.90;100.00;95133.44;10473694;28;20032;-72
2021/03/25 19:59:59;;;;;;;32.33;15.55;;;;;;;1.96;100.00;95144.03;10457433;28;20068;-72
2021/03/25 20:04:59;;;;;;;38.58;14.65;;;;;;;2.06;100.00;95148.91;10439052;28;20186;-72
2021/03/25 20:10:00;;;;;;;27.17;11.40;;;;;;;2.13;96.50;95154.97;10482840;28;20063;-72
2021/03/25 20:15:01;;;;;;;31.60;11.90;;;;;;;2.09;95.76;95158.28;10482729;28;20090;-72
2021/03/25 20:20:05;;;;;;;22.70;12.30;;;;;;;2.11;93.54;95157.03;10453489;28;20033;-72
2021/03/25 20:25:07;;;;;;;23.25;12.88;;;;;;;2.16;85.97;95161.72;10464492;28;20036;-72
2021/03/25 20:30:09;;;;;;;24.33;12.80;;;;;;;1.98;84.33;95157.91;10482641;28;20032;-74
2021/03/25 20:35:10;;;;;;;26.17;12.52;;;;;;;1.70;89.40;95166.94;10488684;28;20025;-73
2021/03/25 20:40:14;;;;;;;22.45;11.52;;;;;;;1.74;92.71;95172.63;10488550;28;20040;-73
2021/03/25 20:45:18;;;;;;;36.05;16.85;;;;;;;1.64;97.13;95166.94;10489033;28;20113;-73
2021/03/25 20:50:22;;;;;;;31.05;15.52;;;;;;;1.39;99.12;95170.22;10488128;28;20449;-73
2021/03/25 20:55:26;;;;;;;37.75;18.35;;;;;;;1.40;100.00;95176.34;10445702;28;20767;-73
2021/03/25 21:00:35;;;;;;;36.80;17.13;;;;;;;1.31;100.00;95178.38;10452247;28;20394;-72
2021/03/25 21:05:38;;;;;;;25.83;13.23;;;;;;;1.24;98.75;95190.81;10469030;28;20044;-72
2021/03/25 21:10:40;;;;;;;23.60;12.55;;;;;;;1.16;98.14;95194.47;10466240;28;20025;-73
2021/03/25 21:15:43;;;;;;;26.58;13.30;;;;;;;1.10;100.00;95174.91;10465795;28;20032;-72
2021/03/25 21:20:46;;;;;;;27.58;13.25;;;;;;;1.20;100.00;95190.41;10464633;28;20036;-73
2021/03/25 21:25:51;;;;;;;26.15;14.05;;;;;;;1.15;100.00;95177.75;10486055;28;20475;-73
2021/03/25 21:30:52;;;;;;;26.95;13.93;;;;;;;0.94;100.00;95177.97;10485564;28;20036;-73
2021/03/25 21:35:54;;;;;;;34.72;15.43;;;;;;;1.10;100.00;95179.38;10485832;28;20036;-73
2021/03/25 21:40:57;;;;;;;31.63;15.40;;;;;;;1.20;100.00;95185.13;10456755;28;20064;-73
2021/03/25 21:46:04;;;;;;;29.42;15.82;;;;;;;1.31;100.00;95181.03;10454677;28;20506;-73
2021/03/25 21:51:11;;;;;;;29.15;14.50;;;;;;;1.31;100.00;95183.66;10444193;28;20024;-73
2021/03/25 21:56:15;;;;;;;28.60;17.23;;;;;;;1.17;100.00;95183.69;10452487;28;20037;-73
2021/03/25 22:01:17;;;;;;;39.95;16.20;;;;;;;1.03;100.00;95189.97;10485013;28;20044;-73
2021/03/25 22:06:17;;;;;;;40.67;17.52;;;;;;;1.09;100.00;95205.06;10451567;28;20092;-73
2021/03/25 22:11:19;;;;;;;33.73;18.33;;;;;;;1.10;100.00;95197.91;10484602;28;20039;-74
2021/03/25 22:16:19;;;;;;;36.53;17.95;;;;;;;1.09;100.00;95197.13;10484557;28;20186;-75
2021/03/25 22:21:20;;;;;;;41.75;21.67;;;;;;;0.92;100.00;95198.50;10485936;28;20057;-77
2021/03/25 22:26:21;;;;;;;50.90;25.73;;;;;;;0.75;100.00;95201.53;10481980;28;20036;-77
2021/03/25 22:31:21;;;;;;;41.90;21.00;;;;;;;0.75;100.00;95209.47;10484511;28;20028;-77
2021/03/25 22:36:22;;;;;;;49.43;25.33;;;;;;;0.77;100.00;95206.63;10486429;28;20036;-77
2021/03/25 22:41:23;;;;;;;49.70;22.27;;;;;;;0.68;100.00;95209.47;10487275;28;20035;-76
2021/03/25 22:46:24;;;;;;;49.95;24.58;;;;;;;0.59;100.00;95213.28;10486128;28;20298;-76
2021/03/25 22:51:25;;;;;;;52.92;23.38;;;;;;;0.44;100.00;95221.38;10486392;28;20344;-76
2021/03/25 22:56:25;;;;;;;47.00;23.85;;;;;;;0.48;100.00;95222.59;10482440;28;20029;-76
2021/03/25 23:01:36;;;;;;;45.70;21.77;;;;;;;0.38;100.00;95223.97;10443333;28;20025;-76
2021/03/25 23:06:40;;;;;;;48.22;24.10;;;;;;;0.25;100.00;95222.09;10442991;28;20045;-76
2021/03/25 23:11:47;;;;;;;52.67;25.48;;;;;;;0.07;100.00;95222.63;10443115;28;20033;-76
2021/03/25 23:16:49;;;;;;;60.05;26.02;;;;;;;0.00;100.00;95222.59;10443260;28;20045;-76
2021/03/25 23:21:54;;;;;;;41.22;21.88;;;;;;;-0.12;100.00;95213.59;10442685;28;20460;-76